sensor_id;sensor_type;location;lat;lon;timestamp;noise_LAeq;noise_LA_min;noise_LA_max;noise_LA01;noise_LA95
69668;Laerm;66534;52.370;4.832;2023-09-19T00:00:09;48.36;44.72;51.02;;
69668;Laerm;66534;52.370;4.832;2023-09-19T00:00:39;48.91;44.50;51.82;;
69668;Laerm;66534;52.370;4.832;2023-09-19T00:01:11;50.55;47.12;53.63;;
69668;Laerm;66534;52.370;4.832;2023-09-19T00:01:42;49.17;46.94;52.35;;
69668;Laerm;66534;52.370;4.832;2023-09-19T00:02:15;48.42;45.86;53.43;;
69668;Laerm;66534;52.370;4.832;2023-09-19T00:02:46;52.43;48.51;54.87;;
69668;Laerm;66534;52.370;4.832;2023-09-19T00:03:17;51.73;48.87;54.27;;
69668;Laerm;66534;52.370;4.832;2023-09-19T00:03:47;50.61;47.92;53.35;;
69668;Laerm;66534;52.370;4.832;2023-09-19T00:04:17;47.05;43.81;50.70;;
69668;Laerm;66534;52.370;4.832;2023-09-19T00:04:49;47.73;43.11;58.15;;
69668;Laerm;66534;52.370;4.832;2023-09-19T00:05:20;49.25;46.55;53.34;;
69668;Laerm;66534;52.370;4.832;2023-09-19T00:05:53;48.63;46.12;51.18;;
69668;Laerm;66534;52.370;4.832;2023-09-19T00:06:26;46.85;44.14;48.68;;
69668;Laerm;66534;52.370;4.832;2023-09-19T00:06:58;47.21;43.67;50.78;;
69668;Laerm;66534;52.370;4.832;2023-09-19T00:07:28;50.66;46.82;56.41;;
69668;Laerm;66534;52.370;4.832;2023-09-19T00:07:59;55.15;52.15;61.25;;
69668;Laerm;66534;52.370;4.832;2023-09-19T00:08:29;52.47;49.25;59.58;;
69668;Laerm;66534;52.370;4.832;2023-09-19T00:09:00;51.05;48.47;53.27;;
69668;Laerm;66534;52.370;4.832;2023-09-19T00:09:30;50.64;48.20;54.44;;
69668;Laerm;66534;52.370;4.832;2023-09-19T00:10:00;50.53;47.04;54.87;;
69668;Laerm;66534;52.370;4.832;2023-09-19T00:10:31;51.17;47.83;54.59;;
69668;Laerm;66534;52.370;4.832;2023-09-19T00:11:02;49.59;47.48;52.44;;
69668;Laerm;66534;52.370;4.832;2023-09-19T00:11:36;49.61;46.41;52.49;;
69668;Laerm;66534;52.370;4.832;2023-09-19T00:12:07;48.23;44.78;51.35;;
69668;Laerm;66534;52.370;4.832;2023-09-19T00:12:42;47.71;44.64;50.60;;
69668;Laerm;66534;52.370;4.832;2023-09-19T00:13:12;48.61;45.93;51.77;;
69668;Laerm;66534;52.370;4.832;2023-09-19T00:13:43;51.51;49.00;53.88;;
69668;Laerm;66534;52.370;4.832;2023-09-19T00:14:14;53.02;50.22;55.76;;
69668;Laerm;66534;52.370;4.832;2023-09-19T00:14:44;50.22;48.12;52.28;;
69668;Laerm;66534;52.370;4.832;2023-09-19T00:15:15;48.50;45.77;50.48;;
69668;Laerm;66534;52.370;4.832;2023-09-19T00:15:47;51.43;47.33;54.85;;
69668;Laerm;66534;52.370;4.832;2023-09-19T00:16:20;54.40;52.53;56.15;;
69668;Laerm;66534;52.370;4.832;2023-09-19T00:16:51;54.70;52.55;56.77;;
69668;Laerm;66534;52.370;4.832;2023-09-19T00:17:21;52.00;49.05;54.85;;
69668;Laerm;66534;52.370;4.832;2023-09-19T00:17:51;50.05;47.98;52.12;;
69668;Laerm;66534;52.370;4.832;2023-09-19T00:18:22;51.35;46.84;55.28;;
69668;Laerm;66534;52.370;4.832;2023-09-19T00:18:54;53.20;50.50;56.02;;
69668;Laerm;66534;52.370;4.832;2023-09-19T00:19:25;51.84;48.85;57.26;;
69668;Laerm;66534;52.370;4.832;2023-09-19T00:19:55;51.81;47.88;57.40;;
69668;Laerm;66534;52.370;4.832;2023-09-19T00:20:25;52.93;49.91;56.01;;
69668;Laerm;66534;52.370;4.832;2023-09-19T00:20:58;50.19;46.99;56.18;;
69668;Laerm;66534;52.370;4.832;2023-09-19T00:21:31;52.88;49.25;56.76;;
69668;Laerm;66534;52.370;4.832;2023-09-19T00:22:01;54.75;49.99;57.85;;
69668;Laerm;66534;52.370;4.832;2023-09-19T00:22:32;49.89;46.47;53.59;;
69668;Laerm;66534;52.370;4.832;2023-09-19T00:23:03;53.67;49.03;56.73;;
69668;Laerm;66534;52.370;4.832;2023-09-19T00:23:34;52.78;49.78;55.23;;
69668;Laerm;66534;52.370;4.832;2023-09-19T00:24:04;51.82;49.31;54.00;;
69668;Laerm;66534;52.370;4.832;2023-09-19T00:24:36;51.48;48.64;53.80;;
69668;Laerm;66534;52.370;4.832;2023-09-19T00:25:06;51.83;49.73;54.72;;
69668;Laerm;66534;52.370;4.832;2023-09-19T00:25:36;54.81;49.70;58.81;;
69668;Laerm;66534;52.370;4.832;2023-09-19T00:26:07;54.02;50.50;57.33;;
69668;Laerm;66534;52.370;4.832;2023-09-19T00:26:37;51.21;48.56;53.48;;
69668;Laerm;66534;52.370;4.832;2023-09-19T00:27:08;50.90;48.85;53.30;;
69668;Laerm;66534;52.370;4.832;2023-09-19T00:27:38;49.51;44.81;53.02;;
69668;Laerm;66534;52.370;4.832;2023-09-19T00:28:12;50.21;44.39;54.37;;
69668;Laerm;66534;52.370;4.832;2023-09-19T00:28:42;49.02;46.72;52.43;;
69668;Laerm;66534;52.370;4.832;2023-09-19T00:29:13;46.87;43.94;49.39;;
69668;Laerm;66534;52.370;4.832;2023-09-19T00:29:46;48.48;45.66;50.58;;
69668;Laerm;66534;52.370;4.832;2023-09-19T00:30:16;48.08;46.12;50.04;;
69668;Laerm;66534;52.370;4.832;2023-09-19T00:30:49;48.76;45.91;51.80;;
69668;Laerm;66534;52.370;4.832;2023-09-19T00:31:22;48.20;45.57;50.46;;
69668;Laerm;66534;52.370;4.832;2023-09-19T00:31:53;46.98;44.74;50.51;;
69668;Laerm;66534;52.370;4.832;2023-09-19T00:32:24;47.14;44.61;53.23;;
69668;Laerm;66534;52.370;4.832;2023-09-19T00:32:54;49.67;46.13;61.71;;
69668;Laerm;66534;52.370;4.832;2023-09-19T00:33:24;46.31;43.27;48.73;;
69668;Laerm;66534;52.370;4.832;2023-09-19T00:33:55;45.80;42.57;48.89;;
69668;Laerm;66534;52.370;4.832;2023-09-19T00:34:27;47.39;44.71;49.84;;
69668;Laerm;66534;52.370;4.832;2023-09-19T00:34:58;48.15;44.88;50.59;;
69668;Laerm;66534;52.370;4.832;2023-09-19T00:35:28;44.86;42.52;48.16;;
69668;Laerm;66534;52.370;4.832;2023-09-19T00:35:58;49.05;44.17;59.64;;
69668;Laerm;66534;52.370;4.832;2023-09-19T00:36:29;50.09;46.43;58.26;;
69668;Laerm;66534;52.370;4.832;2023-09-19T00:36:59;50.33;47.37;52.89;;
69668;Laerm;66534;52.370;4.832;2023-09-19T00:37:30;52.93;49.82;55.68;;
69668;Laerm;66534;52.370;4.832;2023-09-19T00:38:00;52.96;49.93;55.75;;
69668;Laerm;66534;52.370;4.832;2023-09-19T00:38:30;52.91;49.16;54.93;;
69668;Laerm;66534;52.370;4.832;2023-09-19T00:39:02;52.98;49.83;56.43;;
69668;Laerm;66534;52.370;4.832;2023-09-19T00:39:33;53.58;50.20;58.25;;
69668;Laerm;66534;52.370;4.832;2023-09-19T00:40:03;53.87;50.64;56.25;;
69668;Laerm;66534;52.370;4.832;2023-09-19T00:40:35;52.68;48.51;64.87;;
69668;Laerm;66534;52.370;4.832;2023-09-19T00:41:06;50.00;47.00;54.31;;
69668;Laerm;66534;52.370;4.832;2023-09-19T00:41:37;51.86;48.48;55.64;;
69668;Laerm;66534;52.370;4.832;2023-09-19T00:42:08;50.25;46.75;53.41;;
69668;Laerm;66534;52.370;4.832;2023-09-19T00:42:41;50.97;47.58;54.20;;
69668;Laerm;66534;52.370;4.832;2023-09-19T00:43:12;51.13;44.78;54.75;;
69668;Laerm;66534;52.370;4.832;2023-09-19T00:43:42;49.82;46.15;51.79;;
69668;Laerm;66534;52.370;4.832;2023-09-19T00:44:12;51.42;47.88;53.82;;
69668;Laerm;66534;52.370;4.832;2023-09-19T00:44:43;51.29;48.54;54.07;;
69668;Laerm;66534;52.370;4.832;2023-09-19T00:45:14;49.58;47.01;53.38;;
69668;Laerm;66534;52.370;4.832;2023-09-19T00:45:45;47.92;45.38;49.85;;
69668;Laerm;66534;52.370;4.832;2023-09-19T00:46:18;47.17;45.00;49.10;;
69668;Laerm;66534;52.370;4.832;2023-09-19T00:46:49;47.51;44.70;49.87;;
69668;Laerm;66534;52.370;4.832;2023-09-19T00:47:20;51.60;46.47;54.12;;
69668;Laerm;66534;52.370;4.832;2023-09-19T00:47:50;52.56;48.99;55.46;;
69668;Laerm;66534;52.370;4.832;2023-09-19T00:48:22;50.25;47.69;52.06;;
69668;Laerm;66534;52.370;4.832;2023-09-19T00:48:52;49.68;47.63;51.70;;
69668;Laerm;66534;52.370;4.832;2023-09-19T00:49:22;49.07;46.57;51.63;;
69668;Laerm;66534;52.370;4.832;2023-09-19T00:49:53;50.71;47.34;60.19;;
69668;Laerm;66534;52.370;4.832;2023-09-19T00:50:24;49.34;46.93;51.88;;
69668;Laerm;66534;52.370;4.832;2023-09-19T00:50:56;51.28;46.48;55.47;;
69668;Laerm;66534;52.370;4.832;2023-09-19T00:51:27;49.43;46.10;54.43;;
69668;Laerm;66534;52.370;4.832;2023-09-19T00:51:57;48.54;45.79;50.98;;
69668;Laerm;66534;52.370;4.832;2023-09-19T00:52:29;47.52;44.83;50.50;;
69668;Laerm;66534;52.370;4.832;2023-09-19T00:53:02;48.14;46.08;50.98;;
69668;Laerm;66534;52.370;4.832;2023-09-19T00:53:39;50.38;47.38;52.98;;
69668;Laerm;66534;52.370;4.832;2023-09-19T00:54:16;48.90;45.84;51.78;;
69668;Laerm;66534;52.370;4.832;2023-09-19T00:54:48;51.66;47.47;54.70;;
69668;Laerm;66534;52.370;4.832;2023-09-19T00:55:18;53.09;48.82;59.86;;
69668;Laerm;66534;52.370;4.832;2023-09-19T00:55:50;51.14;48.51;59.14;;
69668;Laerm;66534;52.370;4.832;2023-09-19T00:56:20;52.97;50.75;55.32;;
69668;Laerm;66534;52.370;4.832;2023-09-19T00:56:51;51.32;49.24;53.06;;
69668;Laerm;66534;52.370;4.832;2023-09-19T00:57:24;49.41;46.64;51.95;;
69668;Laerm;66534;52.370;4.832;2023-09-19T00:57:55;48.76;46.30;52.54;;
69668;Laerm;66534;52.370;4.832;2023-09-19T00:58:25;51.90;47.98;54.80;;
69668;Laerm;66534;52.370;4.832;2023-09-19T00:59:02;53.30;50.91;56.49;;
69668;Laerm;66534;52.370;4.832;2023-09-19T00:59:32;53.79;48.99;65.47;;
69668;Laerm;66534;52.370;4.832;2023-09-19T01:00:03;58.17;53.96;66.66;;
69668;Laerm;66534;52.370;4.832;2023-09-19T01:00:37;52.65;49.56;55.55;;
69668;Laerm;66534;52.370;4.832;2023-09-19T01:01:08;51.42;47.74;60.34;;
69668;Laerm;66534;52.370;4.832;2023-09-19T01:01:38;49.57;45.44;53.05;;
69668;Laerm;66534;52.370;4.832;2023-09-19T01:02:09;47.37;44.78;49.79;;
69668;Laerm;66534;52.370;4.832;2023-09-19T01:02:41;49.92;45.08;58.43;;
69668;Laerm;66534;52.370;4.832;2023-09-19T01:03:12;49.16;46.63;55.81;;
69668;Laerm;66534;52.370;4.832;2023-09-19T01:03:46;50.53;46.87;57.65;;
69668;Laerm;66534;52.370;4.832;2023-09-19T01:04:16;47.45;44.57;51.14;;
69668;Laerm;66534;52.370;4.832;2023-09-19T01:04:47;46.83;43.87;50.05;;
69668;Laerm;66534;52.370;4.832;2023-09-19T01:05:17;48.93;44.09;51.58;;
69668;Laerm;66534;52.370;4.832;2023-09-19T01:05:48;49.10;45.98;51.36;;
69668;Laerm;66534;52.370;4.832;2023-09-19T01:06:19;47.16;44.98;50.43;;
69668;Laerm;66534;52.370;4.832;2023-09-19T01:06:49;48.22;45.48;50.38;;
69668;Laerm;66534;52.370;4.832;2023-09-19T01:07:23;47.68;45.01;50.81;;
69668;Laerm;66534;52.370;4.832;2023-09-19T01:07:53;46.54;44.59;48.83;;
69668;Laerm;66534;52.370;4.832;2023-09-19T01:08:24;46.80;43.87;49.21;;
69668;Laerm;66534;52.370;4.832;2023-09-19T01:08:59;46.51;42.90;48.69;;
69668;Laerm;66534;52.370;4.832;2023-09-19T01:09:29;45.90;43.06;48.48;;
69668;Laerm;66534;52.370;4.832;2023-09-19T01:10:00;47.98;43.09;52.17;;
69668;Laerm;66534;52.370;4.832;2023-09-19T01:10:32;47.36;43.68;51.70;;
69668;Laerm;66534;52.370;4.832;2023-09-19T01:11:18;45.41;43.05;50.88;;
69668;Laerm;66534;52.370;4.832;2023-09-19T01:11:50;46.95;43.00;50.81;;
69668;Laerm;66534;52.370;4.832;2023-09-19T01:12:24;48.78;45.56;51.58;;
69668;Laerm;66534;52.370;4.832;2023-09-19T01:13:08;48.53;45.32;51.44;;
69668;Laerm;66534;52.370;4.832;2023-09-19T01:15:10;45.74;43.26;48.45;;
69668;Laerm;66534;52.370;4.832;2023-09-19T01:15:47;44.58;42.74;46.36;;
69668;Laerm;66534;52.370;4.832;2023-09-19T01:16:24;45.09;42.93;47.89;;
69668;Laerm;66534;52.370;4.832;2023-09-19T01:17:03;45.27;42.44;47.47;;
69668;Laerm;66534;52.370;4.832;2023-09-19T01:17:45;45.04;42.79;53.03;;
69668;Laerm;66534;52.370;4.832;2023-09-19T01:18:54;50.08;47.53;52.53;;
69668;Laerm;66534;52.370;4.832;2023-09-19T01:20:17;46.28;43.10;50.60;;
69668;Laerm;66534;52.370;4.832;2023-09-19T01:21:11;51.06;47.05;54.45;;
69668;Laerm;66534;52.370;4.832;2023-09-19T01:22:26;50.11;46.60;53.11;;
69668;Laerm;66534;52.370;4.832;2023-09-19T01:28:52;52.56;48.36;54.84;;
69668;Laerm;66534;52.370;4.832;2023-09-19T01:30:12;52.00;49.29;54.61;;
69668;Laerm;66534;52.370;4.832;2023-09-19T01:30:44;52.30;48.41;54.52;;
69668;Laerm;66534;52.370;4.832;2023-09-19T01:31:14;48.77;45.72;51.89;;
69668;Laerm;66534;52.370;4.832;2023-09-19T01:31:45;49.24;46.32;53.63;;
69668;Laerm;66534;52.370;4.832;2023-09-19T01:32:16;48.22;45.09;52.20;;
69668;Laerm;66534;52.370;4.832;2023-09-19T01:32:47;50.83;46.98;53.41;;
69668;Laerm;66534;52.370;4.832;2023-09-19T01:33:17;50.03;46.93;53.57;;
69668;Laerm;66534;52.370;4.832;2023-09-19T01:33:54;48.59;46.83;50.30;;
69668;Laerm;66534;52.370;4.832;2023-09-19T01:35:18;50.37;48.00;52.84;;
69668;Laerm;66534;52.370;4.832;2023-09-19T01:35:49;51.60;49.09;54.07;;
69668;Laerm;66534;52.370;4.832;2023-09-19T01:36:20;52.13;48.93;55.44;;
69668;Laerm;66534;52.370;4.832;2023-09-19T01:36:52;53.04;49.28;55.65;;
69668;Laerm;66534;52.370;4.832;2023-09-19T01:37:22;53.35;46.89;59.19;;
69668;Laerm;66534;52.370;4.832;2023-09-19T01:37:55;51.86;47.08;55.90;;
69668;Laerm;66534;52.370;4.832;2023-09-19T01:38:26;48.66;46.03;51.41;;
69668;Laerm;66534;52.370;4.832;2023-09-19T01:38:57;48.29;45.90;50.53;;
69668;Laerm;66534;52.370;4.832;2023-09-19T01:39:30;48.64;46.42;58.76;;
69668;Laerm;66534;52.370;4.832;2023-09-19T01:40:37;49.86;46.63;52.10;;
69668;Laerm;66534;52.370;4.832;2023-09-19T01:41:11;52.90;47.10;56.69;;
69668;Laerm;66534;52.370;4.832;2023-09-19T01:41:47;52.20;48.04;55.24;;
69668;Laerm;66534;52.370;4.832;2023-09-19T01:43:31;52.38;47.99;68.85;;
69668;Laerm;66534;52.370;4.832;2023-09-19T01:44:03;51.52;48.74;54.41;;
69668;Laerm;66534;52.370;4.832;2023-09-19T01:44:40;51.05;47.78;53.83;;
69668;Laerm;66534;52.370;4.832;2023-09-19T01:45:31;54.85;50.21;58.43;;
69668;Laerm;66534;52.370;4.832;2023-09-19T01:46:13;54.20;51.05;57.42;;
69668;Laerm;66534;52.370;4.832;2023-09-19T01:46:44;50.10;46.47;53.69;;
69668;Laerm;66534;52.370;4.832;2023-09-19T01:47:26;51.80;47.47;54.76;;
69668;Laerm;66534;52.370;4.832;2023-09-19T01:48:00;48.49;45.18;51.55;;
69668;Laerm;66534;52.370;4.832;2023-09-19T01:48:35;48.39;45.66;50.98;;
69668;Laerm;66534;52.370;4.832;2023-09-19T01:49:31;48.68;46.00;52.67;;
69668;Laerm;66534;52.370;4.832;2023-09-19T01:51:30;49.77;45.87;54.12;;
69668;Laerm;66534;52.370;4.832;2023-09-19T01:52:12;49.82;45.99;53.69;;
69668;Laerm;66534;52.370;4.832;2023-09-19T01:53:51;48.29;45.32;51.34;;
69668;Laerm;66534;52.370;4.832;2023-09-19T01:53:55;53.98;46.00;57.95;;
69668;Laerm;66534;52.370;4.832;2023-09-19T01:54:33;56.11;50.77;59.69;;
69668;Laerm;66534;52.370;4.832;2023-09-19T01:55:08;51.53;49.17;53.83;;
69668;Laerm;66534;52.370;4.832;2023-09-19T01:55:43;53.40;49.12;55.73;;
69668;Laerm;66534;52.370;4.832;2023-09-19T01:56:21;55.08;51.46;58.47;;
69668;Laerm;66534;52.370;4.832;2023-09-19T01:56:59;51.28;47.22;55.56;;
69668;Laerm;66534;52.370;4.832;2023-09-19T01:57:34;51.71;48.03;56.07;;
69668;Laerm;66534;52.370;4.832;2023-09-19T01:58:08;52.52;49.58;55.78;;
69668;Laerm;66534;52.370;4.832;2023-09-19T01:58:48;55.84;51.19;60.04;;
69668;Laerm;66534;52.370;4.832;2023-09-19T01:59:23;57.59;53.90;61.55;;
69668;Laerm;66534;52.370;4.832;2023-09-19T01:59:57;55.82;52.76;60.47;;
69668;Laerm;66534;52.370;4.832;2023-09-19T02:00:29;52.69;50.07;55.22;;
69668;Laerm;66534;52.370;4.832;2023-09-19T02:01:00;53.82;50.21;57.58;;
69668;Laerm;66534;52.370;4.832;2023-09-19T02:01:31;54.58;51.89;57.40;;
69668;Laerm;66534;52.370;4.832;2023-09-19T02:02:02;51.07;47.64;54.04;;
69668;Laerm;66534;52.370;4.832;2023-09-19T02:02:36;48.49;46.06;52.34;;
69668;Laerm;66534;52.370;4.832;2023-09-19T02:03:07;51.04;46.64;54.81;;
69668;Laerm;66534;52.370;4.832;2023-09-19T02:03:38;49.75;46.38;52.08;;
69668;Laerm;66534;52.370;4.832;2023-09-19T02:04:09;53.85;49.55;57.48;;
69668;Laerm;66534;52.370;4.832;2023-09-19T02:04:40;54.29;50.35;58.21;;
69668;Laerm;66534;52.370;4.832;2023-09-19T02:05:10;50.64;48.34;52.66;;
69668;Laerm;66534;52.370;4.832;2023-09-19T02:05:47;51.77;48.31;54.61;;
69668;Laerm;66534;52.370;4.832;2023-09-19T02:06:18;52.09;48.66;55.15;;
69668;Laerm;66534;52.370;4.832;2023-09-19T02:06:49;50.89;48.28;53.68;;
69668;Laerm;66534;52.370;4.832;2023-09-19T02:07:19;53.46;49.93;57.34;;
69668;Laerm;66534;52.370;4.832;2023-09-19T02:07:49;53.54;51.03;56.10;;
69668;Laerm;66534;52.370;4.832;2023-09-19T02:08:20;52.18;49.33;54.44;;
69668;Laerm;66534;52.370;4.832;2023-09-19T02:08:53;49.67;47.07;52.01;;
69668;Laerm;66534;52.370;4.832;2023-09-19T02:09:24;51.45;48.35;54.27;;
69668;Laerm;66534;52.370;4.832;2023-09-19T02:09:54;53.02;49.60;55.42;;
69668;Laerm;66534;52.370;4.832;2023-09-19T02:10:25;55.23;53.39;57.35;;
69668;Laerm;66534;52.370;4.832;2023-09-19T02:10:55;53.52;50.30;57.72;;
69668;Laerm;66534;52.370;4.832;2023-09-19T02:11:25;52.23;50.03;56.60;;
69668;Laerm;66534;52.370;4.832;2023-09-19T02:11:56;56.96;49.60;73.18;;
69668;Laerm;66534;52.370;4.832;2023-09-19T02:12:26;57.11;52.11;68.48;;
69668;Laerm;66534;52.370;4.832;2023-09-19T02:12:57;51.79;48.90;54.64;;
69668;Laerm;66534;52.370;4.832;2023-09-19T02:13:29;50.49;47.01;53.39;;
69668;Laerm;66534;52.370;4.832;2023-09-19T02:14:01;53.54;50.43;58.54;;
69668;Laerm;66534;52.370;4.832;2023-09-19T02:14:32;54.88;51.40;57.47;;
69668;Laerm;66534;52.370;4.832;2023-09-19T02:15:03;55.59;51.35;59.64;;
69668;Laerm;66534;52.370;4.832;2023-09-19T02:15:33;50.11;46.68;66.89;;
69668;Laerm;66534;52.370;4.832;2023-09-19T02:16:04;49.52;47.06;51.70;;
69668;Laerm;66534;52.370;4.832;2023-09-19T02:16:34;49.29;47.62;51.58;;
69668;Laerm;66534;52.370;4.832;2023-09-19T02:17:05;48.55;46.52;50.64;;
69668;Laerm;66534;52.370;4.832;2023-09-19T02:17:37;49.39;46.92;51.53;;
69668;Laerm;66534;52.370;4.832;2023-09-19T02:18:07;50.13;48.06;52.30;;
69668;Laerm;66534;52.370;4.832;2023-09-19T02:18:38;47.46;44.93;49.53;;
69668;Laerm;66534;52.370;4.832;2023-09-19T02:19:09;49.95;46.70;52.60;;
69668;Laerm;66534;52.370;4.832;2023-09-19T02:19:39;51.40;48.00;59.93;;
69668;Laerm;66534;52.370;4.832;2023-09-19T02:20:11;49.00;46.31;51.60;;
69668;Laerm;66534;52.370;4.832;2023-09-19T02:20:45;49.59;47.02;55.28;;
69668;Laerm;66534;52.370;4.832;2023-09-19T02:21:16;52.04;48.17;55.75;;
69668;Laerm;66534;52.370;4.832;2023-09-19T02:21:47;49.50;47.14;51.99;;
69668;Laerm;66534;52.370;4.832;2023-09-19T02:22:18;48.36;45.26;51.90;;
69668;Laerm;66534;52.370;4.832;2023-09-19T02:22:49;49.56;45.96;56.20;;
69668;Laerm;66534;52.370;4.832;2023-09-19T02:23:20;53.71;49.50;57.22;;
69668;Laerm;66534;52.370;4.832;2023-09-19T02:23:50;50.47;48.25;55.84;;
69668;Laerm;66534;52.370;4.832;2023-09-19T02:24:21;51.08;48.56;53.28;;
69668;Laerm;66534;52.370;4.832;2023-09-19T02:24:52;51.15;48.49;53.48;;
69668;Laerm;66534;52.370;4.832;2023-09-19T02:25:23;50.64;47.79;52.79;;
69668;Laerm;66534;52.370;4.832;2023-09-19T02:25:54;52.88;50.57;54.63;;
69668;Laerm;66534;52.370;4.832;2023-09-19T02:26:24;52.12;50.21;54.29;;
69668;Laerm;66534;52.370;4.832;2023-09-19T02:26:54;56.11;50.42;60.86;;
69668;Laerm;66534;52.370;4.832;2023-09-19T02:27:26;53.32;49.04;58.45;;
69668;Laerm;66534;52.370;4.832;2023-09-19T02:27:56;52.40;49.27;54.42;;
69668;Laerm;66534;52.370;4.832;2023-09-19T02:28:28;53.26;50.34;55.44;;
69668;Laerm;66534;52.370;4.832;2023-09-19T02:29:05;51.17;47.34;53.63;;
69668;Laerm;66534;52.370;4.832;2023-09-19T02:29:36;52.46;48.79;54.75;;
69668;Laerm;66534;52.370;4.832;2023-09-19T02:30:06;55.34;50.99;58.89;;
69668;Laerm;66534;52.370;4.832;2023-09-19T02:30:36;56.73;52.07;60.13;;
69668;Laerm;66534;52.370;4.832;2023-09-19T02:31:07;53.90;49.39;57.08;;
69668;Laerm;66534;52.370;4.832;2023-09-19T02:31:37;53.16;50.50;58.37;;
69668;Laerm;66534;52.370;4.832;2023-09-19T02:32:07;52.98;50.04;55.40;;
69668;Laerm;66534;52.370;4.832;2023-09-19T02:32:39;51.55;47.83;55.06;;
69668;Laerm;66534;52.370;4.832;2023-09-19T02:33:09;52.20;47.46;56.36;;
69668;Laerm;66534;52.370;4.832;2023-09-19T02:33:40;54.36;51.41;57.86;;
69668;Laerm;66534;52.370;4.832;2023-09-19T02:34:10;54.13;50.30;59.11;;
69668;Laerm;66534;52.370;4.832;2023-09-19T02:34:40;59.30;54.54;63.55;;
69668;Laerm;66534;52.370;4.832;2023-09-19T02:35:11;55.27;52.27;57.91;;
69668;Laerm;66534;52.370;4.832;2023-09-19T02:35:42;54.19;51.48;61.25;;
69668;Laerm;66534;52.370;4.832;2023-09-19T02:36:12;53.43;49.23;63.75;;
69668;Laerm;66534;52.370;4.832;2023-09-19T02:36:47;52.23;47.38;55.99;;
69668;Laerm;66534;52.370;4.832;2023-09-19T02:37:17;51.90;48.80;54.51;;
69668;Laerm;66534;52.370;4.832;2023-09-19T02:37:49;50.75;48.37;55.45;;
69668;Laerm;66534;52.370;4.832;2023-09-19T02:38:19;52.37;49.51;56.33;;
69668;Laerm;66534;52.370;4.832;2023-09-19T02:38:54;57.35;53.05;60.81;;
69668;Laerm;66534;52.370;4.832;2023-09-19T02:39:24;53.89;51.67;56.25;;
69668;Laerm;66534;52.370;4.832;2023-09-19T02:39:55;54.40;51.06;57.45;;
69668;Laerm;66534;52.370;4.832;2023-09-19T02:40:26;54.55;50.97;59.13;;
69668;Laerm;66534;52.370;4.832;2023-09-19T02:40:57;53.60;50.53;56.49;;
69668;Laerm;66534;52.370;4.832;2023-09-19T02:41:27;52.89;49.10;56.85;;
69668;Laerm;66534;52.370;4.832;2023-09-19T02:41:59;51.83;47.44;55.57;;
69668;Laerm;66534;52.370;4.832;2023-09-19T02:42:29;51.19;47.52;54.16;;
69668;Laerm;66534;52.370;4.832;2023-09-19T02:43:00;54.92;48.86;59.47;;
69668;Laerm;66534;52.370;4.832;2023-09-19T02:43:31;53.42;50.04;56.77;;
69668;Laerm;66534;52.370;4.832;2023-09-19T02:44:01;54.15;50.47;57.00;;
69668;Laerm;66534;52.370;4.832;2023-09-19T02:44:31;55.19;50.96;58.37;;
69668;Laerm;66534;52.370;4.832;2023-09-19T02:45:02;54.57;50.10;58.29;;
69668;Laerm;66534;52.370;4.832;2023-09-19T02:45:33;51.75;48.69;54.66;;
69668;Laerm;66534;52.370;4.832;2023-09-19T02:46:04;52.64;48.82;56.03;;
69668;Laerm;66534;52.370;4.832;2023-09-19T02:46:34;50.48;47.85;53.18;;
69668;Laerm;66534;52.370;4.832;2023-09-19T02:47:06;50.96;48.03;56.08;;
69668;Laerm;66534;52.370;4.832;2023-09-19T02:47:36;52.32;48.69;55.93;;
69668;Laerm;66534;52.370;4.832;2023-09-19T02:48:06;51.79;47.81;54.33;;
69668;Laerm;66534;52.370;4.832;2023-09-19T02:48:37;51.15;48.80;54.14;;
69668;Laerm;66534;52.370;4.832;2023-09-19T02:49:08;50.93;47.06;54.68;;
69668;Laerm;66534;52.370;4.832;2023-09-19T02:49:38;54.40;51.52;57.57;;
69668;Laerm;66534;52.370;4.832;2023-09-19T02:50:09;52.36;48.90;54.76;;
69668;Laerm;66534;52.370;4.832;2023-09-19T02:50:41;52.86;49.79;55.24;;
69668;Laerm;66534;52.370;4.832;2023-09-19T02:51:12;50.58;47.45;53.90;;
69668;Laerm;66534;52.370;4.832;2023-09-19T02:51:43;50.73;46.28;55.17;;
69668;Laerm;66534;52.370;4.832;2023-09-19T02:52:14;54.14;52.50;55.82;;
69668;Laerm;66534;52.370;4.832;2023-09-19T02:52:44;51.62;48.85;54.60;;
69668;Laerm;66534;52.370;4.832;2023-09-19T02:53:15;49.02;47.20;50.89;;
69668;Laerm;66534;52.370;4.832;2023-09-19T02:53:46;51.69;47.63;55.64;;
69668;Laerm;66534;52.370;4.832;2023-09-19T02:54:17;52.90;50.49;55.65;;
69668;Laerm;66534;52.370;4.832;2023-09-19T02:54:48;52.38;48.17;59.45;;
69668;Laerm;66534;52.370;4.832;2023-09-19T02:55:18;53.09;48.26;55.78;;
69668;Laerm;66534;52.370;4.832;2023-09-19T02:55:49;54.03;49.99;57.45;;
69668;Laerm;66534;52.370;4.832;2023-09-19T02:56:19;55.73;52.57;58.15;;
69668;Laerm;66534;52.370;4.832;2023-09-19T02:56:50;56.18;52.89;58.60;;
69668;Laerm;66534;52.370;4.832;2023-09-19T02:57:20;55.41;51.09;58.34;;
69668;Laerm;66534;52.370;4.832;2023-09-19T02:57:51;50.28;47.02;53.55;;
69668;Laerm;66534;52.370;4.832;2023-09-19T02:58:22;49.15;47.06;53.13;;
69668;Laerm;66534;52.370;4.832;2023-09-19T02:58:53;51.56;47.81;59.55;;
69668;Laerm;66534;52.370;4.832;2023-09-19T02:59:25;51.16;47.94;60.52;;
69668;Laerm;66534;52.370;4.832;2023-09-19T02:59:55;49.41;46.65;51.71;;
69668;Laerm;66534;52.370;4.832;2023-09-19T03:00:25;50.34;46.14;53.33;;
69668;Laerm;66534;52.370;4.832;2023-09-19T03:00:56;49.42;46.39;52.09;;
69668;Laerm;66534;52.370;4.832;2023-09-19T03:01:27;50.85;47.55;53.68;;
69668;Laerm;66534;52.370;4.832;2023-09-19T03:01:58;53.23;50.33;55.60;;
69668;Laerm;66534;52.370;4.832;2023-09-19T03:02:30;52.24;49.29;54.98;;
69668;Laerm;66534;52.370;4.832;2023-09-19T03:03:02;52.99;49.92;55.52;;
69668;Laerm;66534;52.370;4.832;2023-09-19T03:03:33;52.11;49.40;55.11;;
69668;Laerm;66534;52.370;4.832;2023-09-19T03:04:04;53.42;50.59;55.49;;
69668;Laerm;66534;52.370;4.832;2023-09-19T03:04:36;50.88;48.41;54.21;;
69668;Laerm;66534;52.370;4.832;2023-09-19T03:05:07;51.35;48.18;54.29;;
69668;Laerm;66534;52.370;4.832;2023-09-19T03:05:37;53.39;49.01;56.99;;
69668;Laerm;66534;52.370;4.832;2023-09-19T03:06:08;51.32;46.53;54.87;;
69668;Laerm;66534;52.370;4.832;2023-09-19T03:06:43;48.40;45.67;50.99;;
69668;Laerm;66534;52.370;4.832;2023-09-19T03:07:13;47.19;44.37;52.18;;
69668;Laerm;66534;52.370;4.832;2023-09-19T03:07:43;51.57;49.01;54.43;;
69668;Laerm;66534;52.370;4.832;2023-09-19T03:08:15;51.05;48.24;53.91;;
69668;Laerm;66534;52.370;4.832;2023-09-19T03:08:47;50.54;47.32;52.89;;
69668;Laerm;66534;52.370;4.832;2023-09-19T03:09:18;49.16;46.16;51.94;;
69668;Laerm;66534;52.370;4.832;2023-09-19T03:09:49;52.05;49.47;54.40;;
69668;Laerm;66534;52.370;4.832;2023-09-19T03:10:20;53.69;50.06;57.00;;
69668;Laerm;66534;52.370;4.832;2023-09-19T03:10:50;51.44;48.99;53.26;;
69668;Laerm;66534;52.370;4.832;2023-09-19T03:11:20;53.59;49.59;56.73;;
69668;Laerm;66534;52.370;4.832;2023-09-19T03:11:53;54.81;50.03;58.81;;
69668;Laerm;66534;52.370;4.832;2023-09-19T03:12:24;52.66;49.44;56.98;;
69668;Laerm;66534;52.370;4.832;2023-09-19T03:12:54;53.71;50.95;57.06;;
69668;Laerm;66534;52.370;4.832;2023-09-19T03:13:25;51.13;47.64;54.31;;